createdAt,value
2022-08-23T00:00:51.169Z,18.33
2022-08-23T00:03:23.078Z,18.32
2022-08-23T00:05:55.448Z,18.33
2022-08-23T00:08:27.591Z,18.32
2022-08-23T00:10:59.722Z,18.32
2022-08-23T00:13:47.772Z,18.33
2022-08-23T00:16:20.530Z,18.33
2022-08-23T00:18:52.797Z,18.34
2022-08-23T00:21:25.019Z,18.34
2022-08-23T00:23:57.022Z,18.35
2022-08-23T00:26:29.594Z,18.36
2022-08-23T00:29:01.820Z,18.37
2022-08-23T00:31:33.797Z,18.37
2022-08-23T00:34:05.650Z,18.36
2022-08-23T00:36:38.296Z,18.35
2022-08-23T00:39:11.403Z,18.36
2022-08-23T00:41:43.557Z,18.37
2022-08-23T00:44:37.631Z,18.38
2022-08-23T00:47:30.618Z,18.40
2022-08-23T00:50:23.308Z,18.39
2022-08-23T00:53:06.430Z,18.39
2022-08-23T00:55:40.034Z,18.38
2022-08-23T00:58:15.166Z,18.40
2022-08-23T01:00:47.433Z,18.41
2022-08-23T01:03:21.129Z,18.41
2022-08-23T01:05:59.643Z,18.38
2022-08-23T01:08:33.778Z,18.41
2022-08-23T01:11:11.209Z,18.41
2022-08-23T01:13:48.593Z,18.41
2022-08-23T01:16:27.370Z,18.41
2022-08-23T01:18:59.944Z,18.40
2022-08-23T01:21:41.376Z,18.38
2022-08-23T01:24:19.212Z,18.36
2022-08-23T01:27:07.850Z,18.37
2022-08-23T01:29:40.696Z,18.37
2022-08-23T01:32:16.742Z,18.37
2022-08-23T01:34:51.546Z,18.36
2022-08-23T01:37:24.655Z,18.36
2022-08-23T01:39:59.164Z,18.35
2022-08-23T01:42:31.157Z,18.34
2022-08-23T01:45:03.177Z,18.34
2022-08-23T01:47:35.853Z,18.32
2022-08-23T01:50:10.330Z,18.30
2022-08-23T01:52:46.795Z,18.27
2022-08-23T01:55:31.239Z,18.25
2022-08-23T01:58:08.153Z,18.23
2022-08-23T02:00:42.792Z,18.21
2022-08-23T02:03:17.826Z,18.20
2022-08-23T02:05:50.155Z,18.20
2022-08-23T02:08:40.697Z,18.19
2022-08-23T02:11:14.670Z,18.17
2022-08-23T02:13:47.689Z,18.17
2022-08-23T02:16:28.032Z,18.17
2022-08-23T02:19:02.520Z,18.16
2022-08-23T02:21:35.315Z,18.16
2022-08-23T02:24:09.972Z,18.15
2022-08-23T02:26:46.441Z,18.14
2022-08-23T02:29:21.733Z,18.14
2022-08-23T02:31:55.915Z,18.13
2022-08-23T02:34:28.809Z,18.11
2022-08-23T02:37:01.009Z,18.10
2022-08-23T02:39:34.129Z,18.09
2022-08-23T02:42:07.092Z,18.10
2022-08-23T02:44:40.347Z,18.11
2022-08-23T02:47:12.648Z,18.12
2022-08-23T02:49:47.212Z,18.13
2022-08-23T02:52:18.997Z,18.15
2022-08-23T02:54:51.239Z,18.14
2022-08-23T02:57:25.366Z,18.17
2022-08-23T02:59:59.098Z,18.16
2022-08-23T03:02:31.285Z,18.15
2022-08-23T03:05:03.547Z,18.16
2022-08-23T03:07:35.580Z,18.18
2022-08-23T03:10:10.481Z,18.21
2022-08-23T03:12:46.443Z,18.22
2022-08-23T03:15:19.056Z,18.23
2022-08-23T03:17:51.427Z,18.24
2022-08-23T03:20:23.674Z,18.26
2022-08-23T03:22:56.399Z,18.27
2022-08-23T03:25:30.038Z,18.27
2022-08-23T03:28:14.113Z,18.27
2022-08-23T03:30:49.023Z,18.27
2022-08-23T03:33:21.489Z,18.26
2022-08-23T03:35:54.147Z,18.26
2022-08-23T03:38:26.160Z,18.26
2022-08-23T03:40:58.546Z,18.26
2022-08-23T03:43:30.871Z,18.27
2022-08-23T03:46:02.677Z,18.27
2022-08-23T03:48:35.471Z,18.28
2022-08-23T03:51:08.624Z,18.28
2022-08-23T03:53:40.589Z,18.28
2022-08-23T03:56:12.570Z,18.29
2022-08-23T03:58:44.554Z,18.29
2022-08-23T04:01:17.118Z,18.30
2022-08-23T04:03:49.622Z,18.30
2022-08-23T04:06:21.823Z,18.30
2022-08-23T04:08:54.783Z,18.31
2022-08-23T04:11:27.675Z,18.33
2022-08-23T04:14:06.389Z,18.34
2022-08-23T04:16:38.992Z,18.35
2022-08-23T04:19:14.344Z,18.37
2022-08-23T04:21:54.290Z,18.40
2022-08-23T04:24:27.294Z,18.41
2022-08-23T04:26:59.230Z,18.44
2022-08-23T04:29:34.044Z,18.45
2022-08-23T04:32:09.755Z,18.46
2022-08-23T04:34:45.329Z,18.48
2022-08-23T04:37:18.697Z,18.49
2022-08-23T04:40:08.746Z,18.51
2022-08-23T04:42:45.918Z,18.55
2022-08-23T04:45:18.302Z,18.60
2022-08-23T04:47:53.111Z,18.65
2022-08-23T04:50:25.360Z,18.71
2022-08-23T04:53:22.321Z,18.77
2022-08-23T04:56:03.596Z,18.84
2022-08-23T04:58:37.110Z,18.90
2022-08-23T05:01:10.743Z,18.96
2022-08-23T05:03:43.386Z,19.01
2022-08-23T05:06:16.036Z,19.05
2022-08-23T05:08:50.178Z,19.09
2022-08-23T05:11:23.289Z,19.16
2022-08-23T05:13:55.247Z,19.21
2022-08-23T05:16:27.784Z,19.25
2022-08-23T05:19:04.825Z,19.28
2022-08-23T05:21:38.640Z,19.29
2022-08-23T05:24:13.608Z,19.35
2022-08-23T05:26:46.314Z,19.41
2022-08-23T05:29:18.805Z,19.46
2022-08-23T05:31:53.940Z,19.53
2022-08-23T05:34:26.907Z,19.60
2022-08-23T05:37:01.589Z,19.66
2022-08-23T05:39:37.670Z,19.69
2022-08-23T05:42:14.264Z,19.74
2022-08-23T05:44:46.587Z,19.78
2022-08-23T05:47:23.710Z,19.81
2022-08-23T05:50:26.016Z,19.82
2022-08-23T05:52:57.936Z,19.85
2022-08-23T05:55:34.741Z,19.88
2022-08-23T05:58:23.861Z,19.92
2022-08-23T06:00:55.745Z,19.93
2022-08-23T06:03:28.119Z,19.95
2022-08-23T06:06:01.566Z,19.98
2022-08-23T06:08:35.053Z,20.04
2022-08-23T06:11:11.098Z,20.11
2022-08-23T06:13:50.309Z,20.16
2022-08-23T06:16:26.360Z,20.18
2022-08-23T06:18:59.654Z,20.18
2022-08-23T06:21:51.207Z,20.16
2022-08-23T06:24:37.552Z,20.14
2022-08-23T06:27:20.657Z,20.13
2022-08-23T06:29:52.538Z,20.15
2022-08-23T06:32:36.351Z,20.19
2022-08-23T06:35:37.700Z,20.22
2022-08-23T06:38:24.872Z,20.26
2022-08-23T06:41:17.104Z,20.26
2022-08-23T06:44:08.317Z,20.26
2022-08-23T06:46:59.279Z,20.27
2022-08-23T06:49:31.536Z,20.24
2022-08-23T06:52:05.561Z,20.26
2022-08-23T06:55:00.400Z,20.31
2022-08-23T06:57:45.011Z,20.34
2022-08-23T07:00:36.169Z,20.34
2022-08-23T07:03:27.645Z,20.34
2022-08-23T07:06:23.178Z,20.35
2022-08-23T07:08:55.465Z,20.39
2022-08-23T07:11:31.552Z,20.43
2022-08-23T07:14:06.421Z,20.45
2022-08-23T07:16:41.550Z,20.45
2022-08-23T07:19:13.741Z,20.48
2022-08-23T07:21:48.734Z,20.52
2022-08-23T07:24:22.629Z,20.51
2022-08-23T07:26:56.915Z,20.52
2022-08-23T07:29:30.086Z,20.58
2022-08-23T07:32:02.224Z,20.64
2022-08-23T07:34:34.551Z,20.66
2022-08-23T07:37:11.473Z,20.68
2022-08-23T07:39:48.178Z,20.70
2022-08-23T07:42:23.187Z,20.73
2022-08-23T07:44:58.788Z,20.79
2022-08-23T07:47:32.941Z,20.83
2022-08-23T07:50:07.061Z,20.84
2022-08-23T07:52:39.298Z,20.86
2022-08-23T07:55:12.421Z,20.89
2022-08-23T07:58:03.906Z,20.90
2022-08-23T08:00:35.763Z,20.91
2022-08-23T08:03:27.227Z,20.95
2022-08-23T08:06:20.068Z,20.97
2022-08-23T08:08:52.999Z,20.97
2022-08-23T08:11:32.334Z,21.00
2022-08-23T08:14:10.238Z,21.05
2022-08-23T08:16:48.784Z,21.06
2022-08-23T08:19:25.032Z,21.08
2022-08-23T08:22:15.729Z,21.12
2022-08-23T08:25:08.095Z,21.18
2022-08-23T08:27:41.234Z,21.25
2022-08-23T08:30:15.584Z,21.30
2022-08-23T08:32:48.109Z,21.35
2022-08-23T08:35:20.201Z,21.45
2022-08-23T08:37:52.546Z,21.59
2022-08-23T08:40:31.581Z,21.75
2022-08-23T08:43:17.652Z,21.92
2022-08-23T08:46:01.062Z,22.05
2022-08-23T08:48:47.436Z,22.08
2022-08-23T08:51:35.801Z,22.11
2022-08-23T08:54:11.312Z,22.22
2022-08-23T08:56:53.585Z,22.30
2022-08-23T08:59:32.126Z,22.32
2022-08-23T09:02:06.468Z,22.36
2022-08-23T09:04:55.505Z,22.46
2022-08-23T09:07:37.525Z,22.59
2022-08-23T09:10:26.151Z,22.76
2022-08-23T09:13:24.246Z,22.83
2022-08-23T09:16:03.215Z,22.95
2022-08-23T09:18:38.309Z,22.99
2022-08-23T09:21:11.977Z,23.08
2022-08-23T09:23:47.678Z,23.15
2022-08-23T09:26:40.285Z,23.14
2022-08-23T09:29:22.544Z,23.16
2022-08-23T09:31:58.500Z,23.16
2022-08-23T09:34:43.696Z,23.18
2022-08-23T09:37:20.881Z,23.23
2022-08-23T09:39:55.723Z,23.32
2022-08-23T09:42:36.632Z,23.44
2022-08-23T09:45:26.592Z,23.53
2022-08-23T09:47:58.972Z,23.66
2022-08-23T09:50:35.499Z,23.76
2022-08-23T09:53:11.561Z,23.83
2022-08-23T09:55:48.246Z,23.92
2022-08-23T09:58:25.992Z,24.00
2022-08-23T10:01:11.937Z,24.08
2022-08-23T10:03:44.847Z,24.07
2022-08-23T10:06:34.219Z,24.13
2022-08-23T10:09:10.726Z,24.16
2022-08-23T10:11:46.870Z,24.20
2022-08-23T10:14:24.308Z,24.29
2022-08-23T10:17:11.156Z,24.39
2022-08-23T10:19:50.896Z,24.43
2022-08-23T10:22:25.978Z,24.45
2022-08-23T10:25:20.692Z,24.48
2022-08-23T10:28:18.404Z,24.54
2022-08-23T10:31:03.462Z,24.55
2022-08-23T10:33:48.681Z,24.55
2022-08-23T10:36:32.110Z,24.57
2022-08-23T10:39:09.071Z,24.56
2022-08-23T10:41:52.151Z,24.53
2022-08-23T10:44:35.354Z,24.51
2022-08-23T10:47:27.488Z,24.52
2022-08-23T10:50:05.816Z,24.59
2022-08-23T10:52:47.484Z,24.66
2022-08-23T10:55:39.119Z,24.71
2022-08-23T10:58:21.858Z,24.77
2022-08-23T11:00:56.941Z,24.80
2022-08-23T11:03:33.189Z,24.88
2022-08-23T11:06:44.677Z,24.96
2022-08-23T11:09:47.757Z,25.05
2022-08-23T11:12:31.689Z,25.10
2022-08-23T11:15:19.450Z,25.17
2022-08-23T11:18:04.829Z,25.25
2022-08-23T11:21:00.929Z,25.33
2022-08-23T11:23:49.289Z,25.41
2022-08-23T11:27:06.649Z,25.47
2022-08-23T11:29:43.852Z,25.53
2022-08-23T11:32:46.137Z,25.58
2022-08-23T11:35:43.241Z,25.65
2022-08-23T11:38:17.304Z,25.74
2022-08-23T11:41:12.662Z,25.79
2022-08-23T11:43:46.485Z,25.80
2022-08-23T11:46:34.905Z,25.79
2022-08-23T11:49:42.056Z,25.85
2022-08-23T11:52:28.430Z,25.86
2022-08-23T11:55:18.609Z,25.89
2022-08-23T11:58:06.344Z,25.92
2022-08-23T12:01:07.676Z,25.99
2022-08-23T12:03:56.959Z,26.08
2022-08-23T12:06:51.067Z,26.13
2022-08-23T12:09:58.459Z,26.16
2022-08-23T12:12:39.234Z,26.14
2022-08-23T12:15:14.576Z,26.12
2022-08-23T12:18:17.337Z,26.09
2022-08-23T12:20:51.904Z,26.07
2022-08-23T12:23:24.121Z,26.07
2022-08-23T12:26:08.454Z,26.04
2022-08-23T12:28:48.069Z,26.00
2022-08-23T12:31:29.979Z,25.96
2022-08-23T12:34:13.704Z,25.93
2022-08-23T12:36:55.612Z,25.89
2022-08-23T12:39:34.592Z,25.87
2022-08-23T12:42:15.632Z,25.84
2022-08-23T12:45:00.238Z,25.76
2022-08-23T12:47:33.319Z,25.75
2022-08-23T12:50:10.674Z,25.71
2022-08-23T12:52:42.721Z,25.65
2022-08-23T12:55:18.582Z,25.62
2022-08-23T12:57:59.625Z,25.57
2022-08-23T13:00:35.477Z,25.49
2022-08-23T13:03:14.643Z,25.41
2022-08-23T13:05:52.229Z,25.31
2022-08-23T13:08:35.024Z,25.21
2022-08-23T13:11:09.467Z,25.07
2022-08-23T13:13:44.186Z,24.93
2022-08-23T13:16:33.155Z,24.83
2022-08-23T13:19:22.366Z,24.78
2022-08-23T13:22:12.085Z,24.69
2022-08-23T13:24:46.310Z,24.55
2022-08-23T13:27:23.781Z,24.48
2022-08-23T13:29:59.909Z,24.41
2022-08-23T13:32:41.786Z,24.37
2022-08-23T13:35:31.181Z,24.29
2022-08-23T13:38:11.494Z,24.17
2022-08-23T13:40:48.685Z,24.08
2022-08-23T13:43:26.320Z,23.97
2022-08-23T13:46:01.444Z,23.89
2022-08-23T13:48:35.535Z,23.84
2022-08-23T13:51:28.757Z,23.76
2022-08-23T13:54:04.027Z,23.68
2022-08-23T13:56:49.430Z,23.62
2022-08-23T13:59:31.600Z,23.57
2022-08-23T14:02:07.332Z,23.52
2022-08-23T14:04:40.336Z,23.50
2022-08-23T14:07:15.117Z,23.47
2022-08-23T14:09:47.220Z,23.46
2022-08-23T14:12:27.552Z,23.44
2022-08-23T14:15:02.152Z,23.37
2022-08-23T14:17:41.326Z,23.28
2022-08-23T14:20:44.023Z,23.25
2022-08-23T14:23:12.710Z,23.23
2022-08-23T14:25:47.228Z,23.20
2022-08-23T14:28:19.954Z,23.19
2022-08-23T14:30:52.107Z,23.18
2022-08-23T14:33:24.750Z,23.16
2022-08-23T14:35:57.385Z,23.15
2022-08-23T14:38:29.887Z,23.13
2022-08-23T14:41:04.881Z,23.10
2022-08-23T14:43:37.114Z,23.08
2022-08-23T14:46:09.188Z,23.06
2022-08-23T14:48:44.365Z,23.04
2022-08-23T14:51:25.860Z,23.03
2022-08-23T14:53:58.290Z,23.00
2022-08-23T14:56:33.647Z,22.97
2022-08-23T14:59:06.149Z,22.95
2022-08-23T15:01:39.376Z,22.92
2022-08-23T15:04:13.521Z,22.90
2022-08-23T15:07:06.959Z,22.87
2022-08-23T15:09:38.400Z,22.84
2022-08-23T15:15:04.696Z,22.77
2022-08-23T15:17:44.478Z,22.73
2022-08-23T15:20:16.550Z,22.65
2022-08-23T15:22:55.818Z,22.55
2022-08-23T15:25:35.398Z,22.47
2022-08-23T15:28:12.842Z,22.43
2022-08-23T15:30:49.715Z,22.39
2022-08-23T15:33:30.840Z,22.36
2022-08-23T15:36:07.362Z,22.32
2022-08-23T15:38:40.821Z,22.26
2022-08-23T15:41:13.159Z,22.17
2022-08-23T15:43:45.770Z,22.01
2022-08-23T15:46:23.085Z,21.86
2022-08-23T15:48:58.229Z,21.75
2022-08-23T15:51:30.224Z,21.62
2022-08-23T15:54:03.082Z,21.53
2022-08-23T15:56:41.862Z,21.49
2022-08-23T15:59:16.505Z,21.43
2022-08-23T16:01:48.860Z,21.35
2022-08-23T16:04:21.048Z,21.29
2022-08-23T16:06:53.006Z,21.25
2022-08-23T16:09:26.917Z,21.22
2022-08-23T16:12:26.853Z,21.12
2022-08-23T16:14:58.707Z,21.07
2022-08-23T16:17:30.932Z,21.05
2022-08-23T16:20:03.243Z,21.05
2022-08-23T16:22:35.113Z,21.05
2022-08-23T16:25:10.128Z,21.05
2022-08-23T16:27:42.022Z,21.02
2022-08-23T16:30:15.487Z,21.00
2022-08-23T16:32:47.599Z,20.96
2022-08-23T16:35:19.770Z,20.93
2022-08-23T16:37:51.722Z,20.92
2022-08-23T16:40:23.865Z,20.90
2022-08-23T16:42:56.480Z,20.90
2022-08-23T16:45:28.665Z,20.90
2022-08-23T16:48:00.867Z,20.90
2022-08-23T16:50:33.117Z,20.88
2022-08-23T16:53:07.386Z,20.85
2022-08-23T16:55:40.713Z,20.78
2022-08-23T16:58:13.119Z,20.72
2022-08-23T17:00:45.367Z,20.71
2022-08-23T17:03:19.034Z,20.71
2022-08-23T17:05:51.101Z,20.71
2022-08-23T17:08:23.000Z,20.72
2022-08-23T17:10:55.135Z,20.71
2022-08-23T17:13:27.654Z,20.69
2022-08-23T17:15:59.548Z,20.67
2022-08-23T17:18:33.672Z,20.61
2022-08-23T17:21:06.851Z,20.58
2022-08-23T17:23:40.628Z,20.53
2022-08-23T17:26:13.846Z,20.48
2022-08-23T17:28:46.265Z,20.48
2022-08-23T17:31:19.768Z,20.48
2022-08-23T17:33:51.751Z,20.45
2022-08-23T17:36:31.922Z,20.44
2022-08-23T17:43:39.982Z,20.38
2022-08-23T17:49:38.931Z,20.32
2022-08-23T17:52:12.276Z,20.36
2022-08-23T17:54:47.771Z,20.35
2022-08-23T17:57:24.882Z,20.32
2022-08-23T17:59:58.367Z,20.28
2022-08-23T18:02:30.473Z,20.22
2022-08-23T18:05:02.453Z,20.21
2022-08-23T18:07:34.294Z,20.20
2022-08-23T18:10:07.589Z,20.17
2022-08-23T18:12:40.151Z,20.16
2022-08-23T18:15:13.757Z,20.15
2022-08-23T18:17:46.567Z,20.12
2022-08-23T18:20:18.830Z,20.09
2022-08-23T18:22:51.157Z,20.07
2022-08-23T18:25:23.393Z,20.05
2022-08-23T18:28:12.469Z,20.05
2022-08-23T18:30:53.572Z,20.04
2022-08-23T18:33:31.445Z,20.02
2022-08-23T18:36:06.299Z,20.01
2022-08-23T18:38:38.514Z,20.00
2022-08-23T18:41:11.008Z,19.99
2022-08-23T18:43:48.018Z,19.97
2022-08-23T18:46:20.446Z,19.95
2022-08-23T18:48:54.519Z,19.95
2022-08-23T18:51:26.984Z,19.95
2022-08-23T18:54:13.532Z,19.93
2022-08-23T18:56:46.012Z,19.91
2022-08-23T18:59:20.718Z,19.92
2022-08-23T19:01:52.636Z,19.90
2022-08-23T19:04:24.576Z,19.89
2022-08-23T19:06:56.995Z,19.88
2022-08-23T19:09:29.263Z,19.88
2022-08-23T19:12:01.444Z,19.88
2022-08-23T19:14:35.811Z,19.85
2022-08-23T19:17:09.350Z,19.81
2022-08-23T19:19:41.593Z,19.80
2022-08-23T19:22:14.595Z,19.74
2022-08-23T19:24:46.580Z,19.73
2022-08-23T19:27:18.522Z,19.74
2022-08-23T19:29:51.102Z,19.75
2022-08-23T19:32:23.714Z,19.76
2022-08-23T19:34:55.650Z,19.77
2022-08-23T19:37:29.959Z,19.77
2022-08-23T19:40:02.600Z,19.78
2022-08-23T19:42:37.169Z,19.78
2022-08-23T19:45:11.253Z,19.78
2022-08-23T19:47:43.192Z,19.78
2022-08-23T19:50:15.574Z,19.79
2022-08-23T19:52:56.761Z,19.80
2022-08-23T19:55:29.519Z,19.79
2022-08-23T19:58:01.830Z,19.80
2022-08-23T20:00:34.635Z,19.80
2022-08-23T20:03:07.000Z,19.81
2022-08-23T20:05:39.380Z,19.81
2022-08-23T20:08:12.250Z,19.79
2022-08-23T20:10:46.281Z,19.77
2022-08-23T20:13:20.159Z,19.76
2022-08-23T20:15:55.991Z,19.73
2022-08-23T20:18:28.480Z,19.75
2022-08-23T20:21:01.094Z,19.73
2022-08-23T20:23:53.535Z,19.70
2022-08-23T20:26:25.805Z,19.69
2022-08-23T20:29:00.133Z,19.70
2022-08-23T20:31:35.270Z,19.71
2022-08-23T20:34:09.338Z,19.70
2022-08-23T20:36:41.677Z,19.70
2022-08-23T20:39:20.382Z,19.70
2022-08-23T20:41:54.136Z,19.72
2022-08-23T20:44:30.146Z,19.72
2022-08-23T20:47:03.372Z,19.72
2022-08-23T20:49:35.490Z,19.70
2022-08-23T20:52:08.477Z,19.69
2022-08-23T20:54:40.843Z,19.67
2022-08-23T20:57:12.814Z,19.67
2022-08-23T20:59:45.329Z,19.67
2022-08-23T21:02:17.440Z,19.64
2022-08-23T21:04:49.593Z,19.62
2022-08-23T21:07:21.713Z,19.61
2022-08-23T21:09:54.106Z,19.62
2022-08-23T21:12:26.197Z,19.60
2022-08-23T21:14:59.666Z,19.58
2022-08-23T21:17:31.820Z,19.56
2022-08-23T21:20:04.730Z,19.55
2022-08-23T21:22:40.101Z,19.55
2022-08-23T21:25:15.507Z,19.56
2022-08-23T21:27:47.299Z,19.57
2022-08-23T21:30:19.263Z,19.58
2022-08-23T21:32:51.127Z,19.57
2022-08-23T21:35:25.113Z,19.58
2022-08-23T21:37:57.087Z,19.58
2022-08-23T21:40:29.143Z,19.56
2022-08-23T21:43:01.308Z,19.56
2022-08-23T21:45:33.302Z,19.55
2022-08-23T21:48:07.274Z,19.56
2022-08-23T21:50:39.154Z,19.57
2022-08-23T21:53:11.710Z,19.57
2022-08-23T21:55:44.016Z,19.58
2022-08-23T21:58:18.290Z,19.57
2022-08-23T22:00:50.192Z,19.57
2022-08-23T22:03:22.425Z,19.57
2022-08-23T22:05:54.826Z,19.56
2022-08-23T22:08:26.719Z,19.57
2022-08-23T22:11:05.351Z,19.57
2022-08-23T22:13:39.148Z,19.55
2022-08-23T22:16:12.047Z,19.54
2022-08-23T22:18:44.071Z,19.53
2022-08-23T22:21:16.224Z,19.53
2022-08-23T22:23:48.241Z,19.50
2022-08-23T22:26:20.125Z,19.49
2022-08-23T22:28:51.989Z,19.47
2022-08-23T22:31:24.321Z,19.45
2022-08-23T22:33:56.410Z,19.44
2022-08-23T22:36:28.365Z,19.44
2022-08-23T22:39:01.009Z,19.41
2022-08-23T22:41:33.811Z,19.41
2022-08-23T22:44:06.894Z,19.40
2022-08-23T22:46:38.803Z,19.40
2022-08-23T22:49:11.198Z,19.40
2022-08-23T22:51:43.315Z,19.41
2022-08-23T22:54:15.453Z,19.41
2022-08-23T22:56:49.088Z,19.41
2022-08-23T22:59:22.785Z,19.41
2022-08-23T23:01:59.893Z,19.42
2022-08-23T23:04:35.787Z,19.42
2022-08-23T23:07:07.725Z,19.43
2022-08-23T23:09:39.545Z,19.44
2022-08-23T23:12:11.598Z,19.45
2022-08-23T23:14:43.451Z,19.46
2022-08-23T23:17:18.308Z,19.47
2022-08-23T23:20:07.851Z,19.47
2022-08-23T23:22:39.750Z,19.47
2022-08-23T23:25:11.838Z,19.47
2022-08-23T23:27:43.995Z,19.48
2022-08-23T23:30:19.830Z,19.48
2022-08-23T23:32:52.663Z,19.48
2022-08-23T23:35:24.637Z,19.48
2022-08-23T23:37:57.085Z,19.48
2022-08-23T23:40:30.238Z,19.48
2022-08-23T23:43:02.760Z,19.47
2022-08-23T23:45:34.952Z,19.45
2022-08-23T23:48:08.434Z,19.42
2022-08-23T23:50:46.652Z,19.38
2022-08-23T23:53:20.629Z,19.34
2022-08-23T23:56:01.895Z,19.34
2022-08-23T23:58:34.556Z,19.35
